Dearborn Heights, Michigan
Current Conditions -  °F | °C
As of 12:53 AM on Thursday 29 Jan 2015 (Local Time) from KDTW Reporting Station
Overcast Overcast  
Wind Chill: 16°   Ceiling: 12000
Heat Index: 26°   Visibility: 10mi
Dew Point: 14°   Wind: 10mph
Humidity: 60%   Direction: 140°SE
Pressure: 30.1"   Gusts: NA
Location:  42.33°N, 83.28°W
Report Text: KDTW 290553Z 14009KT 10SM BKN120 OVC180 M03/M10 A3010 RMK AO2 SLP201 T10331100 11033 21050 58033
Loading
Personal Weather Stations






























Interactive Weather Map New forecast layout! Learn more

10-Day Weather Forecast

Advertisements
Track Severe Weather on mobile